Flight Track Log - Related Links

Times and Time Zones

All times are in EDT time to prevent confusion due to time zone crossing. See the AAL963 flight status page for this flight to view local times or setup timezone preferences in your user account.

Time Position Orientation Groundspeed Altitude Reporting Facility
EDT Latitude Longitude Course Direction KTS MPH feet Rate Location/Type
Wed 09:49:27 PM 32.8710 -97.0300 178° South 195 224 1,500  Level FlightAware ADS-B
Wed 09:49:47 PM 32.8530 -97.0260 169° South 189 217 2,300 1,800 Climbing FlightAware ADS-B
Wed 09:50:07 PM 32.8350 -97.0210 167° South 206 237 2,700 818 Climbing FlightAware ADS-B
Wed 09:50:31 PM 32.8120 -97.0130 164° South 233 268 2,900 955 Climbing FlightAware ADS-B
Wed 09:50:51 PM 32.7910 -97.0060 164° South 250 288 3,400 1,688 Climbing FlightAware ADS-B
Wed 09:51:03 PM 32.7760 -97.0020 167° South 253 291 3,800 1,941 Climbing FlightAware ADS-B
Wed 09:51:25 PM 32.7520 -96.9920 161° South 260 299 4,500 2,000 Climbing FlightAware ADS-B
Wed 09:51:33 PM 32.7430 -96.9860 151° Southeast 264 304 4,800 2,250 Climbing FlightAware ADS-B
Wed 09:51:41 PM 32.7360 -96.9790 140° Southeast 264 304 5,100 2,100 Climbing FlightAware ADS-B
Wed 09:51:53 PM 32.7260 -96.9650 130° Southeast 270 311 5,500 2,000 Climbing FlightAware ADS-B
Wed 09:52:02 PM 32.7210 -96.9540 118° Southeast 277 319 5,800 2,100 Climbing FlightAware ADS-B
Wed 09:52:13 PM 32.7170 -96.9370 106° East 284 327 6,200 1,833 Climbing FlightAware ADS-B
Wed 09:52:38 PM 32.7210 -96.9000 83° East 296 341 6,900 2,182 Climbing FlightAware ADS-B
Wed 09:52:57 PM 32.7270 -96.8680 77° East 290 334 7,800 2,195 Climbing FlightAware ADS-B
Wed 09:53:19 PM 32.7310 -96.8330 82° East 298 343 8,400 2,000 Climbing FlightAware ADS-B
Wed 09:53:39 PM 32.7340 -96.8000 84° East 298 343 9,200 2,100 Climbing FlightAware ADS-B
Wed 09:53:59 PM 32.7350 -96.7670 88° East 303 349 9,800 1,607 Climbing FlightAware ADS-B
Wed 09:54:35 PM 32.7390 -96.7040 86° East 323 372 10,700 1,250 Climbing FlightAware ADS-B
Wed 09:55:11 PM 32.7430 -96.6390 86° East 352 405 11,300 971 Climbing FlightAware ADS-B
Wed 09:55:43 PM 32.7470 -96.5750 86° East 376 433 11,800 1,235 Climbing FlightAware ADS-B
Wed 09:56:19 PM 32.7510 -96.4960 87° East 402 463 12,700 1,750 Climbing FlightAware ADS-B
Wed 09:56:55 PM 32.7550 -96.4150 87° East 410 472 13,900 1,971 Climbing FlightAware ADS-B
Wed 09:57:29 PM 32.7590 -96.3380 86° East 419 482 15,000 1,714 Climbing FlightAware ADS-B
Wed 09:58:05 PM 32.7500 -96.2550 97° East 431 496 15,900 1,667 Climbing FlightAware ADS-B
Wed 09:58:41 PM 32.7360 -96.1730 101° East 437 503 17,000 1,913 Climbing FlightAware ADS-B
Wed 09:59:14 PM 32.7240 -96.0960 100° East 440 506 18,100 1,826 Climbing FlightAware ADS-B
Wed 09:59:50 PM 32.7100 -96.0080 101° East 448 516 19,100 1,775 Climbing FlightAware ADS-B
Wed 10:00:25 PM 32.6970 -95.9210 100° East 453 521 20,200 1,775 Climbing FlightAware ADS-B
Wed 10:01:01 PM 32.6830 -95.8320 101° East 461 531 21,200 1,663 Climbing FlightAware ADS-B
Wed 10:01:48 PM 32.6640 -95.7180 101° East 466 536 22,500 1,563 Climbing FlightAware ADS-B
Wed 10:02:37 PM 32.6600 -95.5880 92° East 474 545 23,700 1,286 Climbing FlightAware ADS-B
Wed 10:03:12 PM 32.6670 -95.4990 85° East 484 557 24,300 1,183 Climbing FlightAware ADS-B
Wed 10:03:48 PM 32.6740 -95.4020 85° East 489 563 25,100 1,421 Climbing FlightAware ADS-B
Wed 10:04:28 PM 32.6720 -95.2960 91° East 492 566 26,100 1,385 Climbing FlightAware ADS-B
Wed 10:05:06 PM 32.6660 -95.1910 94° East 497 572 26,900 1,114 Climbing FlightAware ADS-B
Wed 10:05:38 PM 32.6560 -95.1050 98° East 504 580 27,400 957 Climbing FlightAware ADS-B
Wed 10:06:15 PM 32.6340 -95.0030 104° East 514 592 28,000 600 Climbing FlightAware ADS-B
Wed 10:06:48 PM 32.6170 -94.9240 104° East 515 593 28,100 930 Climbing FlightAware ADS-B
Wed 10:07:26 PM 32.5900 -94.8090 106° East 528 608 29,100 1,352 Climbing FlightAware ADS-B
Wed 10:07:59 PM 32.5700 -94.7170 104° East 533 613 29,700 759 Climbing FlightAware ADS-B
Wed 10:08:45 PM 32.5430 -94.5950 105° East 534 615 30,100 951 Climbing FlightAware ADS-B
Wed 10:09:21 PM 32.5220 -94.4980 104° East 527 606 31,000 750 Climbing FlightAware ADS-B
Wed 10:09:57 PM 32.5040 -94.4130 104° East 527 606 31,000  Level FlightAware ADS-B
Wed 10:10:34 PM 32.4850 -94.3240 104° East 527 606 31,000  Level FlightAware ADS-B
Wed 10:11:09 PM 32.3860 -94.2250 140° Southeast 520 598 31,000  Level FlightAware ADS-B
Wed 10:11:57 PM 32.3210 -94.1110 124° Southeast 523 602 31,000  Level FlightAware ADS-B
Wed 10:12:53 PM 32.2500 -93.9860 124° Southeast 524 603 31,000  Level FlightAware ADS-B
Wed 10:13:28 PM 32.1970 -93.8960 125° Southeast 521 600 31,000  Level FlightAware ADS-B
Wed 10:14:10 PM 32.1490 -93.8110 124° Southeast 521 600 31,000  Level FlightAware ADS-B
Wed 10:14:46 PM 32.1070 -93.7390 125° Southeast 521 600 31,000  Level FlightAware ADS-B
Wed 10:15:23 PM 32.0650 -93.6650 124° Southeast 521 600 31,000  Level FlightAware ADS-B
Wed 10:15:59 PM 32.0240 -93.5930 124° Southeast 521 600 31,000  Level FlightAware ADS-B
Wed 10:16:35 PM 31.9830 -93.5200 123° Southeast 521 600 31,000  Level FlightAware ADS-B
Wed 10:17:12 PM 31.9400 -93.4460 124° Southeast 521 600 31,000  Level FlightAware ADS-B
Wed 10:17:48 PM 31.8990 -93.3740 124° Southeast 521 600 31,000  Level FlightAware ADS-B
Wed 10:18:24 PM 31.8580 -93.3020 124° Southeast 521 600 31,000  Level FlightAware ADS-B
Wed 10:19:00 PM 31.8160 -93.2300 124° Southeast 521 600 31,000  Level FlightAware ADS-B
Wed 10:19:36 PM 31.7750 -93.1580 124° Southeast 521 600 31,000  Level FlightAware ADS-B
Wed 10:20:13 PM 31.7330 -93.0850 124° Southeast 521 600 31,000  Level FlightAware ADS-B
Wed 10:20:49 PM 31.6920 -93.0130 124° Southeast 521 600 31,000  Level FlightAware ADS-B
Wed 10:21:25 PM 31.6500 -92.9410 124° Southeast 521 600 31,000  Level FlightAware ADS-B
Wed 10:22:01 PM 31.6090 -92.8690 124° Southeast 521 600 31,000  Level FlightAware ADS-B
Wed 10:22:38 PM 31.5670 -92.7950 124° Southeast 521 600 31,000  Level FlightAware ADS-B
Wed 10:23:14 PM 31.5250 -92.7240 125° Southeast 521 600 31,000  Level FlightAware ADS-B
Wed 10:26:11 PM 31.1550 -92.1240 126° Southeast 31,000  Level FlightAware ADS-B
Wed 10:30:05 PM 30.8410 -91.6020 125° Southeast 513 590 31,000  Level FlightAware ADS-B
Wed 10:30:46 PM 30.7840 -91.5080 125° Southeast 513 590 31,000  Level FlightAware ADS-B
Wed 10:31:25 PM 30.7260 -91.4140 126° Southeast 511 588 31,000  Level FlightAware ADS-B
Wed 10:32:10 PM 30.6680 -91.3180 125° Southeast 509 586 31,000  Level FlightAware ADS-B
Wed 10:32:40 PM 30.6250 -91.2480 126° Southeast 508 585 31,000  Level FlightAware ADS-B
Wed 10:33:17 PM 30.5760 -91.1680 125° Southeast 510 587 31,000  Level FlightAware ADS-B
Wed 10:33:55 PM 30.5220 -91.0800 125° Southeast 512 589 31,000  Level FlightAware ADS-B
Wed 10:34:25 PM 30.4840 -91.0180 125° Southeast 514 592 31,000  Level FlightAware ADS-B
Wed 10:35:10 PM 30.4200 -90.9140 125° Southeast 513 590 31,000  Level FlightAware ADS-B
Wed 10:35:46 PM 30.3710 -90.8350 126° Southeast 513 590 31,000  Level FlightAware ADS-B
Wed 10:36:15 PM 30.3310 -90.7710 126° Southeast 514 592 31,000  Level FlightAware ADS-B
Wed 10:37:01 PM 30.2740 -90.6780 125° Southeast 514 592 31,000  Level FlightAware ADS-B
Wed 10:37:40 PM 30.2120 -90.5790 126° Southeast 512 589 31,000  Level FlightAware ADS-B
Wed 10:38:10 PM 30.1700 -90.5130 126° Southeast 511 588 31,000  Level FlightAware ADS-B
Wed 10:38:50 PM 30.1120 -90.4200 126° Southeast 513 590 31,000  Level FlightAware ADS-B
Wed 10:39:35 PM 30.0520 -90.3240 126° Southeast 512 589 31,000  Level FlightAware ADS-B
Wed 10:40:11 PM 30.0000 -90.2410 126° Southeast 512 589 31,000  Level FlightAware ADS-B
Wed 10:40:45 PM 29.9510 -90.1620 126° Southeast 512 589 31,000  Level FlightAware ADS-B
Wed 10:41:23 PM 29.9050 -90.0750 121° Southeast 515 593 31,000  Level FlightAware ADS-B
Wed 10:41:59 PM 29.8720 -89.9830 112° Southeast 518 596 31,000  Level FlightAware ADS-B
Wed 10:42:31 PM 29.8470 -89.9000 109° East 520 598 31,000  Level FlightAware ADS-B
Wed 10:43:07 PM 29.8200 -89.8060 108° East 522 601 31,000  Level FlightAware ADS-B
Wed 10:43:42 PM 29.7920 -89.7140 109° East 524 603 31,000  Level FlightAware ADS-B
Wed 10:44:16 PM 29.7650 -89.6230 109° East 526 605 31,000  Level FlightAware ADS-B
Wed 10:44:52 PM 29.7360 -89.5270 109° East 525 604 31,000  Level FlightAware ADS-B
Wed 10:45:28 PM 29.7070 -89.4320 109° East 526 605 31,000  Level FlightAware ADS-B
Wed 10:46:04 PM 29.6780 -89.3390 110° East 526 605 31,000  Level FlightAware ADS-B
Wed 10:46:36 PM 29.6550 -89.2610 109° East 525 604 31,000  Level FlightAware ADS-B
Wed 10:47:12 PM 29.6230 -89.1580 110° East 526 605 31,000  Level FlightAware ADS-B
Wed 10:47:48 PM 29.5950 -89.0660 109° East 525 604 31,000  Level FlightAware ADS-B
Wed 10:48:18 PM 29.5710 -88.9860 109° East 524 603 31,000  Level FlightAware ADS-B
Wed 10:48:56 PM 29.5410 -88.8900 110° East 521 600 31,000  Level FlightAware ADS-B
Wed 10:49:34 PM 29.5110 -88.7930 110° East 521 600 31,000  Level FlightAware ADS-B
Wed 10:50:06 PM 29.4850 -88.7090 110° East 519 597 31,000  Level FlightAware ADS-B
Wed 10:50:42 PM 29.4560 -88.6150 109° East 518 596 31,000  Level FlightAware ADS-B
Wed 10:51:14 PM 29.4290 -88.5270 109° East 519 597 31,000  Level FlightAware ADS-B
Wed 10:51:50 PM 29.4000 -88.4350 110° East 519 597 31,000  Level FlightAware ADS-B
Wed 10:52:28 PM 29.3690 -88.3360 110° East 518 596 31,000  Level FlightAware ADS-B
Wed 10:53:04 PM 29.3400 -88.2430 110° East 519 597 31,000  Level FlightAware ADS-B
Wed 10:53:36 PM 29.3140 -88.1600 110° East 520 598 31,000  Level FlightAware ADS-B
Wed 10:54:12 PM 29.2850 -88.0660 109° East 521 600 31,000  Level FlightAware ADS-B
Wed 10:54:48 PM 29.2560 -87.9740 110° East 523 602 31,000  Level FlightAware ADS-B
Wed 10:55:20 PM 29.2290 -87.8910 110° East 523 602 31,000  Level FlightAware ADS-B
Wed 10:55:58 PM 29.1980 -87.7930 110° East 524 603 31,000  Level FlightAware ADS-B
Wed 10:56:32 PM 29.1700 -87.7040 110° East 522 601 31,000  Level FlightAware ADS-B
Wed 10:57:08 PM 29.1410 -87.6120 110° East 522 601 31,000  Level FlightAware ADS-B
Wed 10:57:40 PM 29.1140 -87.5280 110° East 519 597 31,000  Level FlightAware ADS-B
Wed 10:58:16 PM 29.0790 -87.4400 114° Southeast 515 593 31,000  Level FlightAware ADS-B
Wed 10:58:48 PM 29.0450 -87.3610 116° Southeast 516 594 31,000  Level FlightAware ADS-B
Wed 10:59:26 PM 29.0070 -87.2740 117° Southeast 516 594 31,000  Level FlightAware ADS-B
Wed 11:00:03 PM 28.9670 -87.1780 115° Southeast 513 590 31,000  Level FlightAware ADS-B
Wed 11:00:38 PM 28.9310 -87.0910 115° Southeast 513 590 31,000  Level FlightAware ADS-B
Wed 11:01:10 PM 28.9000 -87.0150 115° Southeast 512 589 31,000  Level FlightAware ADS-B
Wed 11:01:46 PM 28.8630 -86.9240 115° Southeast 512 589 31,000  Level FlightAware ADS-B
Wed 11:02:24 PM 28.8240 -86.8320 116° Southeast 512 589 31,000  Level FlightAware ADS-B
Wed 11:02:54 PM 28.7940 -86.7600 115° Southeast 512 589 31,000  Level FlightAware ADS-B
Wed 11:03:32 PM 28.7550 -86.6660 115° Southeast 512 589 31,000  Level FlightAware ADS-B
Wed 11:04:10 PM 28.7170 -86.5750 115° Southeast 513 590 31,000  Level FlightAware ADS-B
Wed 11:04:42 PM 28.6840 -86.4980 116° Southeast 513 590 31,000  Level FlightAware ADS-B
Wed 11:05:28 PM 28.6440 -86.4020 115° Southeast 513 590 31,000  Level FlightAware ADS-B
Wed 11:05:56 PM 28.6060 -86.3160 117° Southeast 512 589 31,000  Level FlightAware ADS-B
Wed 11:06:48 PM 28.5580 -86.2020 116° Southeast 511 588 31,000  Level FlightAware ADS-B
Wed 11:07:25 PM 28.5270 -86.1250 115° Southeast 511 588 31,000  Level FlightAware ADS-B
Wed 11:08:02 PM 28.4950 -86.0480 115° Southeast 511 588 31,000  Level FlightAware ADS-B
Wed 11:08:38 PM 28.4650 -85.9740 115° Southeast 511 588 31,000  Level FlightAware ADS-B
Wed 11:09:15 PM 28.4070 -85.8540 119° Southeast 508 585 31,000  Level FlightAware ADS-B
Wed 11:09:51 PM 28.3750 -85.7800 116° Southeast 508 585 31,000  Level FlightAware ADS-B
Wed 11:10:27 PM 28.3440 -85.7070 116° Southeast 508 585 31,000  Level FlightAware ADS-B
Wed 11:11:03 PM 28.3120 -85.6330 116° Southeast 508 585 31,000  Level FlightAware ADS-B
Wed 11:11:36 PM 28.2830 -85.5660 116° Southeast 508 585 31,000  Level FlightAware ADS-B
Wed 11:12:12 PM 28.2520 -85.4930 116° Southeast 508 585 31,000  Level FlightAware ADS-B
Wed 11:12:48 PM 28.2200 -85.4190 116° Southeast 508 585 31,000  Level FlightAware ADS-B
Wed 11:13:33 PM 28.1340 -85.2310 117° Southeast 503 579 31,000  Level FlightAware ADS-B
Wed 11:14:10 PM 28.1020 -85.1560 116° Southeast 503 579 31,000  Level FlightAware ADS-B
Wed 11:14:46 PM 28.0710 -85.0840 116° Southeast 503 579 31,000  Level FlightAware ADS-B
Wed 11:15:18 PM 28.0260 -84.9870 118° Southeast 505 581 31,000  Level FlightAware ADS-B
Wed 11:15:58 PM 27.9820 -84.8890 117° Southeast 505 581 31,000  Level FlightAware ADS-B
Wed 11:16:28 PM 27.9520 -84.8200 116° Southeast 506 582 31,000  Level FlightAware ADS-B
Wed 11:17:06 PM 27.9160 -84.7200 112° Southeast 509 586 31,000  Level FlightAware ADS-B
Wed 11:17:38 PM 27.9040 -84.6450 100° East 508 585 31,000  Level FlightAware ADS-B
Wed 11:18:18 PM 27.8840 -84.5380 102° East 506 582 31,000  Level FlightAware ADS-B
Wed 11:18:48 PM 27.8620 -84.4630 108° East 506 582 31,000  Level FlightAware ADS-B
Wed 11:19:26 PM 27.8190 -84.3690 117° Southeast 507 583 31,000  Level FlightAware ADS-B
Wed 11:20:02 PM 27.7770 -84.2850 119° Southeast 506 582 31,000  Level FlightAware ADS-B
Wed 11:20:35 PM 27.7400 -84.2120 120° Southeast 505 581 31,000  Level FlightAware ADS-B
Wed 11:21:11 PM 27.6980 -84.1290 120° Southeast 502 578 31,000  Level FlightAware ADS-B
Wed 11:21:48 PM 27.6560 -84.0440 119° Southeast 499 574 31,000  Level FlightAware ADS-B
Wed 11:22:20 PM 27.6190 -83.9710 120° Southeast 497 572 31,000  Level FlightAware ADS-B
Wed 11:22:56 PM 27.5780 -83.8900 120° Southeast 498 573 31,000  Level FlightAware ADS-B
Wed 11:23:31 PM 27.5380 -83.8110 120° Southeast 497 572 31,000  Level FlightAware ADS-B
Wed 11:24:07 PM 27.4970 -83.7310 120° Southeast 498 573 31,000  Level FlightAware ADS-B
Wed 11:24:40 PM 27.4600 -83.6580 120° Southeast 500 575 31,000  Level FlightAware ADS-B
Wed 11:25:16 PM 27.4190 -83.5770 120° Southeast 498 573 31,000  Level FlightAware ADS-B
Wed 11:25:51 PM 27.3780 -83.4970 120° Southeast 496 571 31,000  Level FlightAware ADS-B
Wed 11:26:24 PM 27.3435 -83.4295 120° Southeast 498 573 31,000  Level FlightAware ADS-B
Wed 11:26:55 PM 27.3045 -83.3537 120° Southeast 499 574 31,000  Level FlightAware ADS-B
Wed 11:27:26 PM 27.2714 -83.2888 120° Southeast 500 575 31,000  Level FlightAware ADS-B
Wed 11:28:09 PM 27.2190 -83.1870 120° Southeast 495 570 31,000  Level FlightAware ADS-B
Wed 11:28:41 PM 27.1830 -83.1170 120° Southeast 496 571 31,000  Level FlightAware ADS-B
Wed 11:29:21 PM 27.1370 -83.0270 120° Southeast 497 572 31,000  Level FlightAware ADS-B
Wed 11:29:57 PM 27.0960 -82.9490 121° Southeast 499 574 31,000  Level FlightAware ADS-B
Wed 11:30:38 PM 27.0480 -82.8570 120° Southeast 494 568 31,000  Level FlightAware ADS-B
Wed 11:31:13 PM 27.0090 -82.7800 120° Southeast 492 566 31,000  Level FlightAware ADS-B
Wed 11:31:23 PM 26.9961 -82.7555 121° Southeast 495 570 31,000  Level FlightAware ADS-B
Wed 11:31:58 PM 26.9590 -82.6837 120° Southeast 496 571 31,000  Level FlightAware ADS-B
Wed 11:32:39 PM 26.9091 -82.5873 120° Southeast 493 567 31,000  Level FlightAware ADS-B
Wed 11:33:32 PM 26.8480 -82.4690 120° Southeast 495 570 31,000  Level FlightAware ADS-B
Wed 11:33:38 PM 26.8404 -82.4551 121° Southeast 496 571 31,000  Level FlightAware ADS-B
Wed 11:34:12 PM 26.8022 -82.3816 120° Southeast 498 573 31,000  Level FlightAware ADS-B
Wed 11:34:54 PM 26.7540 -82.2892 120° Southeast 502 578 31,000  Level FlightAware ADS-B
Wed 11:35:29 PM 26.7140 -82.2120 120° Southeast 498 573 31,000  Level FlightAware ADS-B
Wed 11:35:44 PM 26.6945 -82.1755 121° Southeast 504 580 31,000  Level FlightAware ADS-B
Wed 11:36:15 PM 26.6575 -82.1049 120° Southeast 505 581 31,000  Level FlightAware ADS-B
Wed 11:36:47 PM 26.6223 -82.0378 120° Southeast 502 578 31,000  Level FlightAware ADS-B
Wed 11:37:17 PM 26.5844 -81.9656 120° Southeast 499 574 31,000 600 Level FlightAware ADS-B
Wed 11:37:47 PM 26.5491 -81.8985 120° Southeast 497 572 31,600 1,279 Climbing FlightAware ADS-B
Wed 11:38:18 PM 26.5136 -81.8311 120° Southeast 496 571 32,300 885 Climbing FlightAware ADS-B
Wed 11:38:48 PM 26.4795 -81.7665 121° Southeast 502 578 32,500 609 Climbing FlightAware ADS-B
Wed 11:39:27 PM 26.4318 -81.6764 121° Southeast 502 578 33,000 423 Climbing FlightAware ADS-B
Wed 11:39:59 PM 26.3943 -81.6057 121° Southeast 501 577 33,000  Level FlightAware ADS-B
Wed 11:40:49 PM 26.3319 -81.4996 123° Southeast 499 574 33,000  Level FlightAware ADS-B
Wed 11:41:20 PM 26.2807 -81.4415 134° Southeast 499 574 33,000  Level FlightAware ADS-B
Wed 11:41:51 PM 26.2306 -81.3851 135° Southeast 499 574 33,000  Level FlightAware ADS-B
Wed 11:42:21 PM 26.1823 -81.3304 135° Southeast 499 574 33,000  Level FlightAware ADS-B
Wed 11:43:05 PM 26.1130 -81.2520 135° Southeast 493 567 33,000  Level FlightAware ADS-B
Wed 11:43:41 PM 26.0550 -81.1870 135° Southeast 494 568 33,000  Level FlightAware ADS-B
Wed 11:43:50 PM 26.0413 -81.1714 134° Southeast 500 575 33,000  Level FlightAware ADS-B
Wed 11:44:21 PM 25.9892 -81.1128 135° Southeast 501 577 33,000  Level FlightAware ADS-B
Wed 11:44:51 PM 25.9410 -81.0580 134° Southeast 495 570 33,000  Level FlightAware ADS-B
Wed 11:45:31 PM 25.8750 -80.9870 136° Southeast 496 571 33,000  Level FlightAware ADS-B
Wed 11:46:07 PM 25.8110 -80.9280 140° Southeast 491 565 33,000  Level FlightAware ADS-B
Wed 11:46:46 PM 25.7430 -80.8640 140° Southeast 492 566 33,000  Level FlightAware ADS-B
Wed 11:47:17 PM 25.6880 -80.8130 140° Southeast 499 574 33,000  Level FlightAware ADS-B
Wed 11:47:51 PM 25.6270 -80.7560 140° Southeast 494 568 33,000  Level FlightAware ADS-B
Wed 11:48:27 PM 25.5640 -80.6970 140° Southeast 501 577 33,000  Level FlightAware ADS-B
Wed 11:49:06 PM 25.4940 -80.6320 140° Southeast 503 579 33,000  Level FlightAware ADS-B
Wed 11:49:26 PM 25.4590 -80.5970 138° Southeast 501 577 33,000  Level FlightAware ADS-B
Wed 11:49:42 PM 25.4390 -80.5640 124° Southeast 504 580 33,000  Level FlightAware ADS-B
Wed 11:50:21 PM 25.3990 -80.4720 116° Southeast 510 587 33,000  Level FlightAware ADS-B
Wed 11:50:52 PM 25.3660 -80.4010 117° Southeast 512 589 33,000  Level FlightAware ADS-B
Wed 11:51:36 PM 25.3190 -80.2970 117° Southeast 508 585 33,000  Level FlightAware ADS-B
Wed 11:52:12 PM 25.2840 -80.2130 115° Southeast 511 588 33,000  Level FlightAware ADS-B
Wed 11:52:46 PM 25.2500 -80.1310 115° Southeast 508 585 33,000  Level FlightAware ADS-B
Wed 11:53:22 PM 25.2150 -80.0470 115° Southeast 508 585 33,000  Level FlightAware ADS-B
Wed 11:53:56 PM 25.1800 -79.9660 116° Southeast 506 582 33,000  Level FlightAware ADS-B
Wed 11:54:32 PM 25.1450 -79.8820 115° Southeast 505 581 33,000  Level FlightAware ADS-B
Wed 11:55:07 PM 25.1090 -79.8000 116° Southeast 504 580 33,000  Level FlightAware ADS-B
Wed 11:55:48 PM 25.0680 -79.7040 115° Southeast 503 579 33,000  Level FlightAware ADS-B
Wed 11:56:22 PM 25.0340 -79.6240 115° Southeast 503 579 33,000  Level FlightAware ADS-B
Wed 11:56:58 PM 24.9990 -79.5410 115° Southeast 503 579 33,000  Level FlightAware ADS-B
Wed 11:57:32 PM 24.9640 -79.4600 115° Southeast 506 582 33,000  Level FlightAware ADS-B
Wed 11:58:11 PM 24.9230 -79.3660 116° Southeast 509 586 33,000  Level FlightAware ADS-B
Wed 11:58:44 PM 24.8910 -79.2910 115° Southeast 510 587 33,000  Level FlightAware ADS-B
Wed 11:59:18 PM 24.8580 -79.2130 115° Southeast 508 585 33,000  Level FlightAware ADS-B
Wed 11:59:52 PM 24.8220 -79.1310 116° Southeast 508 585 33,000  Level FlightAware ADS-B
Thu 12:00:33 AM 24.7810 -79.0370 116° Southeast 509 586 33,000  Level FlightAware ADS-B
Thu 12:01:13 AM 24.7400 -78.9420 115° Southeast 509 586 33,000  Level FlightAware ADS-B
Thu 12:01:48 AM 24.7070 -78.8650 115° Southeast 508 585 33,000  Level FlightAware ADS-B
Thu 12:02:19 AM 24.6730 -78.7880 116° Southeast 507 583 33,000  Level FlightAware ADS-B
Thu 12:03:02 AM 24.6340 -78.6950 115° Southeast 507 583 33,000  Level FlightAware ADS-B
Thu 12:03:46 AM 24.5910 -78.6000 116° Southeast 509 586 33,000  Level FlightAware ADS-B
Thu 12:04:42 AM 24.5070 -78.4770 127° Southeast 511 588 33,000  Level FlightAware ADS-B
Thu 12:05:26 AM 24.4500 -78.3890 125° Southeast 511 588 33,000  Level FlightAware ADS-B
Thu 12:06:02 AM 24.4080 -78.3240 125° Southeast 511 588 33,000  Level FlightAware ADS-B
Thu 12:06:38 AM 24.3670 -78.2590 125° Southeast 511 588 33,000  Level FlightAware ADS-B
Thu 12:07:51 AM 24.2361 -78.0803 125° Southeast 514 592 33,000  Level Miami Center
Thu 12:08:53 AM 24.1514 -77.9567 127° Southeast 514 592 33,000  Level Miami Center
Thu 12:09:51 AM 24.0625 -77.8283 127° Southeast 514 592 33,000  Level Miami Center
Thu 12:10:51 AM 23.9797 -77.7072 127° Southeast 508 585 33,000  Level Miami Center
Thu 12:12:00 AM 23.8862 -77.5710 127° Southeast  Level FlightAware Approximate
Thu 12:19:00 AM 23.3143 -76.7457 127° Southeast  Level FlightAware Approximate
Thu 12:20:00 AM 23.2322 -76.6284 127° Southeast  Level FlightAware Approximate
Thu 12:21:00 AM 23.1501 -76.5113 127° Southeast  Level FlightAware Approximate
Thu 12:22:00 AM 23.0679 -76.3942 127° Southeast  Level FlightAware Approximate
Thu 12:23:00 AM 22.9856 -76.2774 127° Southeast  Level FlightAware Approximate
Thu 12:24:00 AM 22.9032 -76.1607 127° Southeast  Level FlightAware Approximate
Thu 12:25:00 AM 22.8207 -76.0441 127° Southeast  Level FlightAware Approximate
Thu 12:26:00 AM 22.7381 -75.9276 128° Southeast  Level FlightAware Approximate
Thu 12:27:00 AM 22.6555 -75.8113 128° Southeast  Level FlightAware Approximate
Thu 12:28:00 AM 22.5727 -75.6951 128° Southeast  Level FlightAware Approximate
Thu 12:29:00 AM 22.4899 -75.5791 128° Southeast  Level FlightAware Approximate
Thu 12:30:00 AM 22.4069 -75.4630 128° Southeast  Level FlightAware Approximate
Thu 12:31:00 AM 22.3234 -75.3477 129° Southeast  Level FlightAware Approximate
Thu 12:32:00 AM 22.2382 -75.2339 129° Southeast  Level FlightAware Approximate
Thu 12:33:00 AM 22.1529 -75.1203 129° Southeast  Level FlightAware Approximate
Thu 12:34:00 AM 22.0626 -75.0145 139° Southeast  Level FlightAware Approximate
Thu 12:35:00 AM 21.9622 -74.9193 139° Southeast  Level FlightAware Approximate
Thu 12:36:00 AM 21.8617 -74.8242 139° Southeast  Level FlightAware Approximate
Thu 12:37:00 AM 21.7612 -74.7293 139° Southeast  Level FlightAware Approximate
Thu 12:38:00 AM 21.6606 -74.6345 139° Southeast  Level FlightAware Approximate
Thu 12:39:00 AM 21.5599 -74.5398 139° Southeast  Level FlightAware Approximate
Thu 12:40:00 AM 21.4592 -74.4453 139° Southeast  Level FlightAware Approximate
Thu 12:41:00 AM 21.3585 -74.3509 139° Southeast  Level FlightAware Approximate
Thu 12:42:00 AM 21.2577 -74.2566 139° Southeast  Level FlightAware Approximate
Thu 12:43:00 AM 21.1568 -74.1624 139° Southeast  Level FlightAware Approximate
Thu 12:44:00 AM 21.0559 -74.0684 139° Southeast  Level FlightAware Approximate
Thu 12:45:00 AM 20.9550 -73.9745 139° Southeast  Level FlightAware Approximate
Thu 12:46:00 AM 20.8540 -73.8807 139° Southeast  Level FlightAware Approximate
Thu 12:47:00 AM 20.7529 -73.7871 139° Southeast  Level FlightAware Approximate
Thu 12:48:00 AM 20.6518 -73.6936 139° Southeast  Level FlightAware Approximate
Thu 12:49:00 AM 20.5506 -73.6002 139° Southeast  Level FlightAware Approximate
Thu 12:50:00 AM 20.4494 -73.5069 139° Southeast  Level FlightAware Approximate
Thu 12:51:00 AM 20.3482 -73.4137 139° Southeast  Level FlightAware Approximate
Thu 12:52:00 AM 20.2468 -73.3207 139° Southeast  Level FlightAware Approximate
Thu 12:53:00 AM 20.1455 -73.2278 139° Southeast  Level FlightAware Approximate
Thu 12:54:00 AM 20.0408 -73.1393 142° Southeast  Level FlightAware Approximate
Thu 12:55:00 AM 19.9356 -73.0515 142° Southeast  Level FlightAware Approximate
Thu 12:56:00 AM 19.8303 -72.9639 142° Southeast  Level FlightAware Approximate
Thu 12:57:00 AM 19.7250 -72.8763 142° Southeast  Level FlightAware Approximate
Thu 12:58:00 AM 19.6197 -72.7888 142° Southeast  Level FlightAware Approximate
Thu 12:59:00 AM 19.5143 -72.7015 142° Southeast  Level FlightAware Approximate
Thu 01:00:00 AM 19.4089 -72.6143 142° Southeast  Level FlightAware Approximate
Thu 01:01:00 AM 19.3034 -72.5272 142° Southeast  Level FlightAware Approximate
Thu 01:02:00 AM 19.1979 -72.4402 142° Southeast  Level FlightAware Approximate
Thu 01:03:00 AM 19.0923 -72.3533 142° Southeast  Level FlightAware Approximate
Thu 01:04:00 AM 18.9867 -72.2666 142° Southeast  Level FlightAware Approximate
Thu 01:05:00 AM 18.8811 -72.1799 142° Southeast  Level FlightAware Approximate
Thu 01:06:00 AM 18.7756 -72.0935 142° Southeast  Level FlightAware Approximate
Thu 01:06:03 AM 18.3600 -71.7590 142° Southeast 504 580 33,000  Level FlightAware ADS-B
Thu 01:06:35 AM 18.3020 -71.7130 143° Southeast 504 580 33,000  Level FlightAware ADS-B
Thu 01:07:11 AM 18.2340 -71.6590 143° Southeast 504 580 33,000  Level FlightAware ADS-B
Thu 01:08:01 AM 18.1500 -71.5910 142° Southeast 503 579 33,000  Level FlightAware ADS-B
Thu 01:08:42 AM 18.0730 -71.5300 143° Southeast 504 580 33,000  Level FlightAware ADS-B
Thu 01:09:22 AM 18.0010 -71.4730 143° Southeast 500 575 33,000  Level FlightAware ADS-B
Thu 01:09:58 AM 17.9450 -71.4270 142° Southeast 500 575 33,000  Level FlightAware ADS-B
Thu 01:10:34 AM 17.8890 -71.3810 142° Southeast 500 575 33,000  Level FlightAware ADS-B
Thu 01:11:25 AM 17.8100 -71.3160 142° Southeast 500 575 33,000  Level FlightAware ADS-B
Thu 01:12:01 AM 17.7540 -71.2710 143° Southeast 500 575 33,000  Level FlightAware ADS-B
Thu 01:12:38 AM 17.6970 -71.2240 142° Southeast 500 575 33,000  Level FlightAware ADS-B
Thu 01:13:17 AM 17.5570 -71.1250 146° Southeast 493 567 33,000  Level FlightAware ADS-B
Thu 01:13:49 AM 17.4990 -71.0790 143° Southeast 492 566 33,000  Level FlightAware ADS-B
Thu 01:14:19 AM 17.4470 -71.0380 143° Southeast 492 566 33,000  Level FlightAware ADS-B
Thu 01:15:01 AM 17.3680 -70.9760 143° Southeast 492 566 33,000  Level FlightAware ADS-B
Thu 01:15:37 AM 17.3040 -70.9260 143° Southeast 492 566 33,000  Level FlightAware ADS-B
Thu 01:16:07 AM 17.2480 -70.8820 143° Southeast 492 566 33,000  Level FlightAware ADS-B
Thu 01:16:45 AM 17.1780 -70.8270 143° Southeast 493 567 33,000  Level FlightAware ADS-B
Thu 01:17:21 AM 17.1130 -70.7770 144° Southeast 492 566 33,000  Level FlightAware ADS-B
Thu 01:17:55 AM 17.0500 -70.7280 143° Southeast 494 568 33,000  Level FlightAware ADS-B
Thu 01:18:37 AM 16.9730 -70.6670 143° Southeast 494 568 33,000  Level FlightAware ADS-B
Thu 01:19:14 AM 16.9060 -70.6150 143° Southeast 495 570 33,000  Level FlightAware ADS-B
Thu 01:19:49 AM 16.8420 -70.5650 143° Southeast 493 567 33,000  Level FlightAware ADS-B
Thu 01:20:21 AM 16.7830 -70.5200 144° Southeast 492 566 33,000  Level FlightAware ADS-B
Thu 01:20:57 AM 16.7160 -70.4680 143° Southeast 492 566 33,000  Level FlightAware ADS-B
Thu 01:21:33 AM 16.6490 -70.4160 143° Southeast 492 566 33,000  Level FlightAware ADS-B
Thu 01:22:15 AM 16.5740 -70.3570 143° Southeast 493 567 33,000  Level FlightAware ADS-B
Thu 01:22:51 AM 16.5080 -70.3070 144° Southeast 491 565 33,000  Level FlightAware ADS-B
Thu 01:23:23 AM 16.4490 -70.2610 143° Southeast 490 564 33,000  Level FlightAware ADS-B
Thu 01:24:01 AM 16.3810 -70.2080 143° Southeast 492 566 33,000  Level FlightAware ADS-B
Thu 01:24:37 AM 16.3140 -70.1570 144° Southeast 493 567 33,000  Level FlightAware ADS-B
Thu 01:25:15 AM 16.2500 -70.1070 143° Southeast 491 565 33,000  Level FlightAware ADS-B
Thu 01:25:54 AM 16.1900 -70.0600 143° Southeast 491 565 33,000  Level FlightAware ADS-B
Thu 01:26:29 AM 16.1090 -69.9990 144° Southeast 488 562 33,000  Level FlightAware ADS-B
Thu 01:27:01 AM 16.0520 -69.9550 143° Southeast 488 562 33,000  Level FlightAware ADS-B
Thu 01:27:37 AM 15.9860 -69.9040 143° Southeast 487 560 33,000  Level FlightAware ADS-B
Thu 01:28:12 AM 15.9220 -69.8570 145° Southeast 485 558 33,000  Level FlightAware ADS-B
Thu 01:28:49 AM 15.8530 -69.8070 145° Southeast 483 556 33,000  Level FlightAware ADS-B
Thu 01:29:21 AM 15.7950 -69.7640 144° Southeast 484 557 33,000  Level FlightAware ADS-B
Thu 01:30:05 AM 15.7200 -69.7100 145° Southeast 479 551 33,000  Level FlightAware ADS-B
Thu 01:30:41 AM 15.6580 -69.6640 144° Southeast 479 551 33,000  Level FlightAware ADS-B
Thu 01:31:20 AM 15.5770 -69.6050 145° Southeast 479 551 33,000  Level FlightAware ADS-B
Thu 01:31:56 AM 15.5120 -69.5570 145° Southeast 480 552 33,000  Level FlightAware ADS-B
Thu 01:32:31 AM 15.4620 -69.5190 144° Southeast 481 554 33,000  Level FlightAware ADS-B
Thu 01:33:07 AM 15.3820 -69.4620 146° Southeast 489 563 33,000  Level FlightAware ADS-B
Thu 01:33:36 AM 15.3260 -69.4210 145° Southeast 488 562 33,000  Level FlightAware ADS-B
Thu 01:34:12 AM 15.2610 -69.3740 145° Southeast 479 551 33,000  Level FlightAware ADS-B
Thu 01:34:51 AM 15.1880 -69.3210 145° Southeast 479 551 33,000  Level FlightAware ADS-B
Thu 01:35:27 AM 15.1230 -69.2730 145° Southeast 478 550 33,000  Level FlightAware ADS-B
Thu 01:36:07 AM 15.0500 -69.2210 145° Southeast 479 551 33,000  Level FlightAware ADS-B
Thu 01:36:42 AM 14.9850 -69.1730 144° Southeast 478 550 33,000  Level FlightAware ADS-B
Thu 01:37:17 AM 14.9220 -69.1280 145° Southeast 480 552 33,000  Level FlightAware ADS-B
Thu 01:37:53 AM 14.8540 -69.0780 145° Southeast 486 559 33,000  Level FlightAware ADS-B
Thu 01:38:27 AM 14.7900 -69.0320 145° Southeast 480 552 33,000  Level FlightAware ADS-B
Thu 01:39:02 AM 14.7240 -68.9850 145° Southeast 480 552 33,000  Level FlightAware ADS-B
Thu 01:39:37 AM 14.6610 -68.9390 145° Southeast 476 548 33,000  Level FlightAware ADS-B
Thu 01:40:13 AM 14.5960 -68.8920 145° Southeast 472 543 33,000  Level FlightAware ADS-B
Thu 01:40:52 AM 14.5240 -68.8400 145° Southeast 472 543 33,000  Level FlightAware ADS-B
Thu 01:41:28 AM 14.4600 -68.7940 145° Southeast 474 545 33,000  Level FlightAware ADS-B
Thu 01:42:07 AM 14.3890 -68.7430 145° Southeast 471 542 33,000  Level FlightAware ADS-B
Thu 01:42:38 AM 14.3340 -68.7030 145° Southeast 471 542 33,000  Level FlightAware ADS-B
Thu 01:43:12 AM 14.2730 -68.6590 145° Southeast 471 542 33,000  Level FlightAware ADS-B
Thu 01:43:49 AM 14.2090 -68.6130 145° Southeast 471 542 33,000  Level FlightAware ADS-B
Thu 01:44:28 AM 14.1370 -68.5600 144° Southeast 473 544 33,000  Level FlightAware ADS-B
Thu 01:44:59 AM 14.0820 -68.5210 145° Southeast 475 547 33,000  Level FlightAware ADS-B
Thu 01:45:33 AM 14.0200 -68.4760 145° Southeast 476 548 33,000  Level FlightAware ADS-B
Thu 01:45:53 AM 13.9870 -68.4450 138° Southeast 476 548 33,000  Level FlightAware ADS-B
Thu 01:46:20 AM 13.9560 -68.3970 124° Southeast 474 545 33,000  Level FlightAware ADS-B
Thu 01:46:53 AM 13.9260 -68.3250 113° Southeast 473 544 33,000  Level FlightAware ADS-B
Thu 01:47:29 AM 13.8950 -68.2530 114° Southeast 468 539 33,000  Level FlightAware ADS-B
Thu 01:47:49 AM 13.8720 -68.2150 122° Southeast 465 535 33,000  Level FlightAware ADS-B
Thu 01:48:08 AM 13.8420 -68.1830 134° Southeast 470 541 33,000  Level FlightAware ADS-B
Thu 01:48:29 AM 13.8050 -68.1580 147° Southeast 466 536 33,000  Level FlightAware ADS-B
Thu 01:48:59 AM 13.7410 -68.1330 159° South 477 549 33,000  Level FlightAware ADS-B
Thu 01:49:35 AM 13.6670 -68.1070 161° South 476 548 33,000  Level FlightAware ADS-B
Thu 01:50:10 AM 13.5930 -68.0820 162° South 475 547 33,000  Level FlightAware ADS-B
Thu 01:50:51 AM 13.5100 -68.0530 161° South 476 548 33,000  Level FlightAware ADS-B
Thu 01:51:24 AM 13.4410 -68.0260 159° South 468 539 33,000  Level FlightAware ADS-B
Thu 01:51:59 AM 13.3710 -67.9890 153° Southeast 477 549 33,000  Level FlightAware ADS-B
Thu 01:52:35 AM 13.2970 -67.9580 158° South 470 541 33,000  Level FlightAware ADS-B
Thu 01:53:09 AM 13.2330 -67.9150 147° Southeast 473 544 33,000  Level FlightAware ADS-B
Thu 01:53:45 AM 13.1680 -67.8680 145° Southeast 473 544 33,000  Level FlightAware ADS-B
Thu 01:54:19 AM 13.1060 -67.8230 145° Southeast 474 545 33,000  Level FlightAware ADS-B
Thu 01:54:55 AM 13.0400 -67.7770 146° Southeast 474 545 33,000  Level FlightAware ADS-B
Thu 01:55:29 AM 12.9770 -67.7320 145° Southeast 475 547 33,000  Level FlightAware ADS-B
Thu 01:56:05 AM 12.9120 -67.6860 145° Southeast 475 547 33,000  Level FlightAware ADS-B
Thu 01:56:40 AM 12.8460 -67.6400 146° Southeast 475 547 33,000  Level FlightAware ADS-B
Thu 01:57:16 AM 12.7810 -67.5940 145° Southeast 474 545 33,000  Level FlightAware ADS-B
Thu 01:57:50 AM 12.7180 -67.5490 145° Southeast 473 544 33,000  Level FlightAware ADS-B
Thu 01:58:26 AM 12.6530 -67.5040 146° Southeast 474 545 33,000  Level FlightAware ADS-B
Thu 01:59:00 AM 12.5900 -67.4590 145° Southeast 473 544 33,000  Level FlightAware ADS-B
Thu 01:59:41 AM 12.5160 -67.4070 146° Southeast 473 544 33,000  Level FlightAware ADS-B
Thu 02:00:20 AM 12.4430 -67.3560 146° Southeast 473 544 33,000  Level FlightAware ADS-B
Thu 02:00:51 AM 12.3870 -67.3170 146° Southeast 473 544 33,000  Level FlightAware ADS-B
Thu 02:01:25 AM 12.3240 -67.2730 146° Southeast 471 542 33,000  Level FlightAware ADS-B
Thu 02:02:01 AM 12.2610 -67.2280 145° Southeast 470 541 33,000  Level FlightAware ADS-B
Thu 02:02:35 AM 12.1970 -67.1840 146° Southeast 470 541 33,000  Level FlightAware ADS-B
Thu 02:03:11 AM 12.1320 -67.1380 145° Southeast 470 541 33,000  Level FlightAware ADS-B
Thu 02:03:46 AM 12.0670 -67.0930 146° Southeast 471 542 33,000  Level FlightAware ADS-B
Thu 02:04:22 AM 12.0020 -67.0470 145° Southeast 472 543 33,000  Level FlightAware ADS-B
Thu 02:04:56 AM 11.9390 -67.0030 146° Southeast 473 544 33,000  Level FlightAware ADS-B
Thu 02:05:32 AM 11.8740 -66.9580 146° Southeast 473 544 33,000  Level FlightAware ADS-B
Thu 02:06:06 AM 11.8100 -66.9130 145° Southeast 475 547 33,000  Level FlightAware ADS-B
Thu 02:06:42 AM 11.7450 -66.8670 145° Southeast 487 560 33,000  Level FlightAware ADS-B
Thu 02:07:16 AM 11.6800 -66.8220 146° Southeast 489 563 33,000  Level FlightAware ADS-B
Thu 02:07:52 AM 11.6140 -66.7750 145° Southeast 489 563 33,000  Level FlightAware ADS-B
Thu 02:08:27 AM 11.5470 -66.7290 146° Southeast 489 563 33,000  Level FlightAware ADS-B
Thu 02:08:57 AM 11.4910 -66.6890 145° Southeast 490 564 33,000  Level FlightAware ADS-B
Thu 02:09:37 AM 11.4170 -66.6370 145° Southeast 490 564 33,000  Level FlightAware ADS-B
Thu 02:10:07 AM 11.3650 -66.6010 146° Southeast 490 564 33,000  Level FlightAware ADS-B
Thu 02:10:51 AM 11.2880 -66.5460 145° Southeast 490 564 33,000  Level FlightAware ADS-B
Thu 02:11:27 AM 11.2180 -66.4970 146° Southeast 490 564 33,000  Level FlightAware ADS-B
Thu 02:12:03 AM 11.1610 -66.4560 145° Southeast 490 564 33,000  Level FlightAware ADS-B
Thu 02:12:39 AM 11.1040 -66.4160 145° Southeast 490 564 33,000  Level FlightAware ADS-B
Thu 02:13:15 AM 11.0470 -66.3750 145° Southeast 490 564 33,000  Level FlightAware ADS-B
Thu 02:13:51 AM 10.9900 -66.3350 145° Southeast 490 564 33,000  Level FlightAware ADS-B
Thu 02:14:27 AM 10.9340 -66.2940 144° Southeast 490 564 33,000 Level FlightAware ADS-B
Thu 02:15:00 AM 10.8210 -66.2190 147° Southeast 33,000 Level FlightAware ADS-B
Thu 02:17:00 AM 10.6040 -66.0616 145° Southeast  Level FlightAware Approximate
Thu 02:18:00 AM 10.4955 -65.9829 145° Southeast  Level FlightAware Approximate
Thu 02:19:00 AM 10.3870 -65.9044 145° Southeast  Level FlightAware Approximate
Thu 02:20:00 AM 10.2784 -65.8259 145° Southeast  Level FlightAware Approximate
Thu 02:21:00 AM 10.1698 -65.7474 145° Southeast  Level FlightAware Approximate
Thu 02:22:00 AM 10.0612 -65.6690 145° Southeast  Level FlightAware Approximate
Thu 02:23:00 AM 9.9526 -65.5906 145° Southeast  Level FlightAware Approximate
Thu 02:24:00 AM 9.8439 -65.5123 145° Southeast  Level FlightAware Approximate
Thu 02:25:00 AM 9.7350 -65.4344 145° Southeast  Level FlightAware Approximate
Thu 02:26:00 AM 9.6261 -65.3565 145° Southeast  Level FlightAware Approximate
Thu 02:27:00 AM 9.5172 -65.2786 145° Southeast  Level FlightAware Approximate
Thu 02:28:00 AM 9.4083 -65.2009 145° Southeast  Level FlightAware Approximate
Thu 02:29:00 AM 9.2993 -65.1231 145° Southeast  Level FlightAware Approximate
Thu 02:30:00 AM 9.1904 -65.0454 145° Southeast  Level FlightAware Approximate
Thu 02:31:00 AM 9.0808 -64.9688 146° Southeast  Level FlightAware Approximate
Thu 02:32:00 AM 8.9707 -64.8927 146° Southeast  Level FlightAware Approximate
Thu 02:33:00 AM 8.8607 -64.8166 146° Southeast  Level FlightAware Approximate
Thu 02:34:00 AM 8.7507 -64.7406 146° Southeast  Level FlightAware Approximate
Thu 02:35:00 AM 8.6406 -64.6647 146° Southeast  Level FlightAware Approximate
Thu 02:36:00 AM 8.5305 -64.5888 146° Southeast  Level FlightAware Approximate
Thu 02:37:00 AM 8.4205 -64.5128 145° Southeast  Level FlightAware Approximate
Thu 02:38:00 AM 8.3108 -64.4363 145° Southeast  Level FlightAware Approximate
Thu 02:39:00 AM 8.2011 -64.3600 145° Southeast  Level FlightAware Approximate
Thu 02:40:00 AM 8.0914 -64.2836 145° Southeast  Level FlightAware Approximate
Thu 02:41:00 AM 7.9816 -64.2073 145° Southeast  Level FlightAware Approximate
Thu 02:42:00 AM 7.8719 -64.1311 145° Southeast  Level FlightAware Approximate
Thu 02:43:00 AM 7.7621 -64.0548 145° Southeast  Level FlightAware Approximate
Thu 02:44:00 AM 7.6523 -63.9786 145° Southeast  Level FlightAware Approximate
Thu 02:45:00 AM 7.5426 -63.9025 145° Southeast  Level FlightAware Approximate
Thu 02:46:00 AM 7.4328 -63.8264 145° Southeast  Level FlightAware Approximate
Thu 02:47:00 AM 7.3229 -63.7503 146° Southeast  Level FlightAware Approximate
Thu 02:48:00 AM 7.2131 -63.6743 146° Southeast  Level FlightAware Approximate
Thu 02:49:00 AM 7.1033 -63.5983 146° Southeast  Level FlightAware Approximate
Thu 02:50:00 AM 6.9934 -63.5224 146° Southeast  Level FlightAware Approximate
Thu 02:51:00 AM 6.8835 -63.4464 146° Southeast  Level FlightAware Approximate
Thu 02:52:00 AM 6.7737 -63.3705 146° Southeast  Level FlightAware Approximate
Thu 02:53:00 AM 6.6638 -63.2947 146° Southeast  Level FlightAware Approximate
Thu 02:54:00 AM 6.5539 -63.2189 146° Southeast  Level FlightAware Approximate
Thu 02:55:00 AM 6.4439 -63.1431 146° Southeast  Level FlightAware Approximate
Thu 02:56:00 AM 6.3340 -63.0673 146° Southeast  Level FlightAware Approximate
Thu 02:57:00 AM 6.2241 -62.9916 146° Southeast  Level FlightAware Approximate
Thu 02:58:00 AM 6.1141 -62.9159 146° Southeast  Level FlightAware Approximate
Thu 02:59:00 AM 6.0044 -62.8404 146° Southeast  Level FlightAware Approximate
Thu 03:00:00 AM 5.8946 -62.7649 146° Southeast  Level FlightAware Approximate
Thu 03:01:00 AM 5.7848 -62.6895 146° Southeast  Level FlightAware Approximate
Thu 03:02:00 AM 5.6750 -62.6140 146° Southeast  Level FlightAware Approximate
Thu 03:03:00 AM 5.5652 -62.5386 146° Southeast  Level FlightAware Approximate
Thu 03:04:00 AM 5.4553 -62.4632 146° Southeast  Level FlightAware Approximate
Thu 03:05:00 AM 5.3455 -62.3879 146° Southeast  Level FlightAware Approximate
Thu 03:06:00 AM 5.2357 -62.3126 146° Southeast  Level FlightAware Approximate
Thu 03:07:00 AM 5.1259 -62.2373 146° Southeast  Level FlightAware Approximate
Thu 03:08:00 AM 5.0160 -62.1620 146° Southeast  Level FlightAware Approximate
Thu 03:09:00 AM 4.9061 -62.0867 146° Southeast  Level FlightAware Approximate
Thu 03:10:00 AM 4.7963 -62.0115 146° Southeast  Level FlightAware Approximate
Thu 03:11:00 AM 4.6864 -61.9363 146° Southeast  Level FlightAware Approximate
Thu 03:12:00 AM 4.5765 -61.8611 146° Southeast  Level FlightAware Approximate
Thu 03:13:00 AM 4.4666 -61.7860 146° Southeast  Level FlightAware Approximate
Thu 03:14:00 AM 4.3567 -61.7109 146° Southeast  Level FlightAware Approximate
Thu 03:15:00 AM 4.2468 -61.6358 146° Southeast  Level FlightAware Approximate
Thu 03:16:00 AM 4.1369 -61.5607 146° Southeast  Level FlightAware Approximate
Thu 03:17:00 AM 4.0270 -61.4856 146° Southeast  Level FlightAware Approximate
Thu 03:18:00 AM 3.9170 -61.4106 146° Southeast  Level FlightAware Approximate
Thu 03:19:00 AM 3.8071 -61.3356 146° Southeast  Level FlightAware Approximate
Thu 03:20:00 AM 3.6971 -61.2606 146° Southeast  Level FlightAware Approximate
Thu 03:21:00 AM 3.5872 -61.1856 146° Southeast  Level FlightAware Approximate
Thu 03:22:00 AM 3.4772 -61.1106 146° Southeast  Level FlightAware Approximate
Thu 03:23:00 AM 3.3673 -61.0356 146° Southeast  Level FlightAware Approximate
Thu 03:24:00 AM 3.2573 -60.9607 146° Southeast  Level FlightAware Approximate
Thu 03:25:00 AM 3.1473 -60.8858 146° Southeast  Level FlightAware Approximate
Thu 03:26:00 AM 3.0374 -60.8109 146° Southeast  Level FlightAware Approximate
Thu 03:27:00 AM 2.9274 -60.7360 146° Southeast  Level FlightAware Approximate
Thu 03:28:00 AM 2.8147 -60.6653 153° Southeast  Level FlightAware Approximate
Thu 03:29:00 AM 2.6960 -60.6046 153° Southeast  Level FlightAware Approximate
Thu 03:30:00 AM 2.5774 -60.5439 153° Southeast  Level FlightAware Approximate
Thu 03:31:00 AM 2.4588 -60.4832 153° Southeast  Level FlightAware Approximate
Thu 03:32:00 AM 2.3401 -60.4225 153° Southeast  Level FlightAware Approximate
Thu 03:33:00 AM 2.2215 -60.3619 153° Southeast  Level FlightAware Approximate
Thu 03:34:00 AM 2.1028 -60.3012 153° Southeast  Level FlightAware Approximate
Thu 03:35:00 AM 1.9842 -60.2406 153° Southeast  Level FlightAware Approximate
Thu 03:36:00 AM 1.8655 -60.1799 153° Southeast  Level FlightAware Approximate
Thu 03:37:00 AM 1.7469 -60.1193 153° Southeast  Level FlightAware Approximate
Thu 03:38:00 AM 1.6282 -60.0587 153° Southeast  Level FlightAware Approximate
Thu 03:39:00 AM 1.5095 -59.9981 153° Southeast  Level FlightAware Approximate
Thu 03:40:00 AM 1.3909 -59.9375 153° Southeast  Level FlightAware Approximate
Thu 03:41:00 AM 1.2722 -59.8769 153° Southeast  Level FlightAware Approximate
Thu 03:42:00 AM 1.1535 -59.8163 153° Southeast  Level FlightAware Approximate
Thu 03:43:00 AM 1.0349 -59.7557 153° Southeast  Level FlightAware Approximate
Thu 03:44:00 AM 0.9162 -59.6951 153° Southeast  Level FlightAware Approximate
Thu 03:45:00 AM 0.7975 -59.6345 153° Southeast  Level FlightAware Approximate
Thu 03:46:00 AM 0.6789 -59.5740 153° Southeast  Level FlightAware Approximate
Thu 03:47:00 AM 0.5602 -59.5134 153° Southeast  Level FlightAware Approximate
Thu 03:48:00 AM 0.4415 -59.4528 153° Southeast  Level FlightAware Approximate
Thu 03:49:00 AM 0.3226 -59.3922 153° Southeast  Level FlightAware Approximate
Thu 03:50:00 AM 0.2038 -59.3315 153° Southeast  Level FlightAware Approximate
Thu 03:51:00 AM 0.0849 -59.2708 153° Southeast  Level FlightAware Approximate
Thu 03:52:00 AM -0.0340 -59.2102 153° Southeast  Level FlightAware Approximate
Thu 03:53:00 AM -0.1529 -59.1495 153° Southeast  Level FlightAware Approximate
Thu 03:54:00 AM -0.2718 -59.0888 153° Southeast  Level FlightAware Approximate
Thu 03:55:00 AM -0.3906 -59.0281 153° Southeast  Level FlightAware Approximate
Thu 03:56:00 AM -0.5095 -58.9675 153° Southeast  Level FlightAware Approximate
Thu 03:57:00 AM -0.6284 -58.9068 153° Southeast  Level FlightAware Approximate
Thu 03:58:00 AM -0.7473 -58.8461 153° Southeast  Level FlightAware Approximate
Thu 03:59:00 AM -0.8662 -58.7854 153° Southeast  Level FlightAware Approximate
Thu 04:00:00 AM -0.9850 -58.7248 153° Southeast  Level FlightAware Approximate
Thu 04:01:00 AM -1.1039 -58.6641 153° Southeast  Level FlightAware Approximate
Thu 04:02:00 AM -1.2228 -58.6034 153° Southeast  Level FlightAware Approximate
Thu 04:03:00 AM -1.3417 -58.5427 153° Southeast  Level FlightAware Approximate
Thu 04:04:00 AM -1.4605 -58.4819 153° Southeast  Level FlightAware Approximate
Thu 04:05:00 AM -1.5794 -58.4212 153° Southeast  Level FlightAware Approximate
Thu 04:06:00 AM -1.6983 -58.3605 153° Southeast  Level FlightAware Approximate
Thu 04:07:00 AM -1.8171 -58.2998 153° Southeast  Level FlightAware Approximate
Thu 04:08:00 AM -1.9360 -58.2391 153° Southeast  Level FlightAware Approximate
Thu 04:09:00 AM -2.0549 -58.1783 153° Southeast  Level FlightAware Approximate
Thu 04:10:00 AM -2.1737 -58.1176 153° Southeast  Level FlightAware Approximate
Thu 04:11:00 AM -2.2926 -58.0568 153° Southeast  Level FlightAware Approximate
Thu 04:12:00 AM -2.4114 -57.9960 153° Southeast  Level FlightAware Approximate
Thu 04:13:00 AM -2.5303 -57.9352 153° Southeast  Level FlightAware Approximate
Thu 04:14:00 AM -2.6491 -57.8745 153° Southeast  Level FlightAware Approximate
Thu 04:15:00 AM -2.7680 -57.8136 153° Southeast  Level FlightAware Approximate
Thu 04:16:00 AM -2.8868 -57.7528 153° Southeast  Level FlightAware Approximate
Thu 04:17:00 AM -3.0057 -57.6920 153° Southeast  Level FlightAware Approximate
Thu 04:18:00 AM -3.1245 -57.6311 153° Southeast  Level FlightAware Approximate
Thu 04:19:00 AM -3.2433 -57.5703 153° Southeast  Level FlightAware Approximate
Thu 04:20:00 AM -3.3622 -57.5094 153° Southeast  Level FlightAware Approximate
Thu 04:21:00 AM -3.4810 -57.4485 153° Southeast  Level FlightAware Approximate
Thu 04:22:00 AM -3.5998 -57.3876 153° Southeast  Level FlightAware Approximate
Thu 04:23:00 AM -3.7186 -57.3267 153° Southeast  Level FlightAware Approximate
Thu 04:24:00 AM -3.8374 -57.2658 153° Southeast  Level FlightAware Approximate
Thu 04:25:00 AM -3.9562 -57.2048 153° Southeast  Level FlightAware Approximate
Thu 04:26:00 AM -4.0750 -57.1438 153° Southeast  Level FlightAware Approximate
Thu 04:27:00 AM -4.1938 -57.0829 153° Southeast  Level FlightAware Approximate
Thu 04:28:00 AM -4.3126 -57.0218 153° Southeast  Level FlightAware Approximate
Thu 04:29:00 AM -4.4314 -56.9608 153° Southeast  Level FlightAware Approximate
Thu 04:30:00 AM -4.5502 -56.8998 153° Southeast  Level FlightAware Approximate
Thu 04:31:00 AM -4.6690 -56.8387 153° Southeast  Level FlightAware Approximate
Thu 04:32:00 AM -4.7877 -56.7776 153° Southeast  Level FlightAware Approximate
Thu 04:33:00 AM -4.9065 -56.7165 153° Southeast  Level FlightAware Approximate
Thu 04:34:00 AM -5.0253 -56.6554 153° Southeast  Level FlightAware Approximate
Thu 04:35:00 AM -5.1440 -56.5942 153° Southeast  Level FlightAware Approximate
Thu 04:36:00 AM -5.2628 -56.5330 153° Southeast  Level FlightAware Approximate
Thu 04:37:00 AM -5.3815 -56.4718 153° Southeast  Level FlightAware Approximate
Thu 04:38:00 AM -5.5003 -56.4106 153° Southeast  Level FlightAware Approximate
Thu 04:39:00 AM -5.6190 -56.3494 153° Southeast  Level FlightAware Approximate
Thu 04:40:00 AM -5.7377 -56.2881 153° Southeast  Level FlightAware Approximate
Thu 04:41:00 AM -5.8565 -56.2268 153° Southeast  Level FlightAware Approximate
Thu 04:42:00 AM -5.9752 -56.1655 153° Southeast  Level FlightAware Approximate
Thu 04:43:00 AM -6.0939 -56.1041 153° Southeast  Level FlightAware Approximate
Thu 04:44:00 AM -6.2126 -56.0428 153° Southeast  Level FlightAware Approximate
Thu 04:45:00 AM -6.3313 -55.9813 153° Southeast  Level FlightAware Approximate
Thu 04:46:00 AM -6.4500 -55.9199 153° Southeast  Level FlightAware Approximate
Thu 04:47:00 AM -6.5686 -55.8585 153° Southeast  Level FlightAware Approximate
Thu 04:48:00 AM -6.6873 -55.7970 153° Southeast  Level FlightAware Approximate
Thu 04:49:00 AM -6.8060 -55.7355 153° Southeast  Level FlightAware Approximate
Thu 04:50:00 AM -6.9246 -55.6739 153° Southeast  Level FlightAware Approximate
Thu 04:51:00 AM -7.0433 -55.6123 153° Southeast  Level FlightAware Approximate
Thu 04:52:00 AM -7.1619 -55.5507 153° Southeast  Level FlightAware Approximate
Thu 04:53:00 AM -7.2806 -55.4891 153° Southeast  Level FlightAware Approximate
Thu 04:54:00 AM -7.3992 -55.4274 153° Southeast  Level FlightAware Approximate
Thu 04:55:00 AM -7.5178 -55.3657 153° Southeast  Level FlightAware Approximate
Thu 04:56:00 AM -7.6364 -55.3039 153° Southeast  Level FlightAware Approximate
Thu 04:57:00 AM -7.7550 -55.2422 153° Southeast  Level FlightAware Approximate
Thu 04:58:00 AM -7.8736 -55.1804 153° Southeast  Level FlightAware Approximate
Thu 04:59:00 AM -7.9922 -55.1185 153° Southeast  Level FlightAware Approximate
Thu 05:00:00 AM -8.1107 -55.0566 153° Southeast  Level FlightAware Approximate
Thu 05:01:00 AM -8.2293 -54.9947 153° Southeast  Level FlightAware Approximate
Thu 05:02:00 AM -8.3478 -54.9327 153° Southeast  Level FlightAware Approximate
Thu 05:03:00 AM -8.4664 -54.8707 153° Southeast  Level FlightAware Approximate
Thu 05:04:00 AM -8.5849 -54.8087 153° Southeast  Level FlightAware Approximate
Thu 05:05:00 AM -8.7034 -54.7466 153° Southeast  Level FlightAware Approximate
Thu 05:06:00 AM -8.8219 -54.6845 153° Southeast  Level FlightAware Approximate
Thu 05:07:00 AM -8.9404 -54.6224 153° Southeast  Level FlightAware Approximate
Thu 05:08:00 AM -9.0589 -54.5602 153° Southeast  Level FlightAware Approximate
Thu 05:09:00 AM -9.1774 -54.4980 153° Southeast  Level FlightAware Approximate
Thu 05:10:00 AM -9.2959 -54.4357 153° Southeast  Level FlightAware Approximate
Thu 05:11:00 AM -9.4143 -54.3733 153° Southeast  Level FlightAware Approximate
Thu 05:12:00 AM -9.5328 -54.3110 153° Southeast  Level FlightAware Approximate
Thu 05:13:00 AM -9.6512 -54.2486 153° Southeast  Level FlightAware Approximate
Thu 05:14:00 AM -9.7697 -54.1861 153° Southeast  Level FlightAware Approximate
Thu 05:15:00 AM -9.8881 -54.1236 153° Southeast  Level FlightAware Approximate
Thu 05:16:00 AM -10.0065 -54.0611 153° Southeast  Level FlightAware Approximate
Thu 05:17:00 AM -10.1249 -53.9985 153° Southeast  Level FlightAware Approximate
Thu 05:18:00 AM -10.2432 -53.9359 152° Southeast  Level FlightAware Approximate
Thu 05:19:00 AM -10.3616 -53.8732 152° Southeast  Level FlightAware Approximate
Thu 05:20:00 AM -10.4800 -53.8105 152° Southeast  Level FlightAware Approximate
Thu 05:21:00 AM -10.5983 -53.7477 152° Southeast  Level FlightAware Approximate
Thu 05:22:00 AM -10.7166 -53.6849 152° Southeast  Level FlightAware Approximate
Thu 05:23:00 AM -10.8350 -53.6220 152° Southeast  Level FlightAware Approximate
Thu 05:24:00 AM -10.9533 -53.5591 152° Southeast  Level FlightAware Approximate
Thu 05:25:00 AM -11.0716 -53.4962 152° Southeast  Level FlightAware Approximate
Thu 05:26:00 AM -11.1898 -53.4331 152° Southeast  Level FlightAware Approximate
Thu 05:27:00 AM -11.3081 -53.3701 152° Southeast  Level FlightAware Approximate
Thu 05:28:00 AM -11.4264 -53.3069 152° Southeast  Level FlightAware Approximate
Thu 05:29:00 AM -11.5446 -53.2438 152° Southeast  Level FlightAware Approximate
Thu 05:30:00 AM -11.6628 -53.1805 152° Southeast  Level FlightAware Approximate
Thu 05:31:00 AM -11.7810 -53.1172 152° Southeast  Level FlightAware Approximate
Thu 05:32:00 AM -11.8992 -53.0539 152° Southeast  Level FlightAware Approximate
Thu 05:33:00 AM -12.0174 -52.9905 152° Southeast  Level FlightAware Approximate
Thu 05:34:00 AM -12.1356 -52.9271 152° Southeast  Level FlightAware Approximate
Thu 05:35:00 AM -12.2537 -52.8636 152° Southeast  Level FlightAware Approximate
Thu 05:36:00 AM -12.3719 -52.8000 152° Southeast  Level FlightAware Approximate
Thu 05:37:00 AM -12.4900 -52.7364 152° Southeast  Level FlightAware Approximate
Thu 05:38:00 AM -12.6081 -52.6727 152° Southeast  Level FlightAware Approximate
Thu 05:39:00 AM -12.7262 -52.6090 152° Southeast  Level FlightAware Approximate
Thu 05:40:00 AM -12.8443 -52.5452 152° Southeast  Level FlightAware Approximate
Thu 05:41:00 AM -12.9624 -52.4813 152° Southeast  Level FlightAware Approximate
Thu 05:42:00 AM -13.0804 -52.4174 152° Southeast  Level FlightAware Approximate
Thu 05:43:00 AM -13.1987 -52.3533 152° Southeast  Level FlightAware Approximate
Thu 05:44:00 AM -13.3169 -52.2892 152° Southeast  Level FlightAware Approximate
Thu 05:45:00 AM -13.4351 -52.2249 152° Southeast  Level FlightAware Approximate
Thu 05:46:00 AM -13.5533 -52.1607 152° Southeast  Level FlightAware Approximate
Thu 05:47:00 AM -13.6715 -52.0963 152° Southeast  Level FlightAware Approximate
Thu 05:48:00 AM -13.7896 -52.0319 152° Southeast  Level FlightAware Approximate
Thu 05:49:00 AM -13.9078 -51.9674 152° Southeast  Level FlightAware Approximate
Thu 05:50:00 AM -14.0259 -51.9029 152° Southeast  Level FlightAware Approximate
Thu 05:51:00 AM -14.1440 -51.8383 152° Southeast  Level FlightAware Approximate
Thu 05:52:00 AM -14.2621 -51.7736 152° Southeast  Level FlightAware Approximate
Thu 05:53:00 AM -14.3802 -51.7089 152° Southeast  Level FlightAware Approximate
Thu 05:54:00 AM -14.4982 -51.6441 152° Southeast  Level FlightAware Approximate
Thu 05:55:00 AM -14.6163 -51.5792 152° Southeast  Level FlightAware Approximate
Thu 05:56:00 AM -14.7343 -51.5143 152° Southeast  Level FlightAware Approximate
Thu 05:57:00 AM -14.8523 -51.4492 152° Southeast  Level FlightAware Approximate
Thu 05:58:00 AM -14.9703 -51.3841 152° Southeast  Level FlightAware Approximate
Thu 05:59:00 AM -15.0882 -51.3190 152° Southeast  Level FlightAware Approximate
Thu 06:00:00 AM -15.2062 -51.2537 152° Southeast  Level FlightAware Approximate
Thu 06:01:00 AM -15.3241 -51.1884 152° Southeast  Level FlightAware Approximate
Thu 06:02:00 AM -15.4420 -51.1231 152° Southeast  Level FlightAware Approximate
Thu 06:03:00 AM -15.5599 -51.0576 152° Southeast  Level FlightAware Approximate
Thu 06:04:00 AM -15.6778 -50.9921 152° Southeast  Level FlightAware Approximate
Thu 06:05:00 AM -15.7954 -50.9266 152° Southeast  Level FlightAware Approximate
Thu 06:06:00 AM -15.9131 -50.8610 152° Southeast  Level FlightAware Approximate
Thu 06:07:00 AM -16.0307 -50.7954 152° Southeast  Level FlightAware Approximate
Thu 06:08:00 AM -16.1483 -50.7297 152° Southeast  Level FlightAware Approximate
Thu 06:09:00 AM -16.2658 -50.6639 152° Southeast  Level FlightAware Approximate
Thu 06:10:00 AM -16.3834 -50.5980 152° Southeast  Level FlightAware Approximate
Thu 06:11:00 AM -16.5009 -50.5321 152° Southeast  Level FlightAware Approximate
Thu 06:12:00 AM -16.6184 -50.4660 152° Southeast  Level FlightAware Approximate
Thu 06:13:00 AM -16.7359 -50.3999 152° Southeast  Level FlightAware Approximate
Thu 06:14:00 AM -16.8533 -50.3337 152° Southeast  Level FlightAware Approximate
Thu 06:15:00 AM -16.9708 -50.2674 152° Southeast  Level FlightAware Approximate
Thu 06:16:00 AM -17.0882 -50.2011 152° Southeast  Level FlightAware Approximate
Thu 06:17:00 AM -17.2056 -50.1346 152° Southeast  Level FlightAware Approximate
Thu 06:17:40 AM -18.1420 -49.9400 152° Southeast 509 586 35,000  Level FlightAware ADS-B
Thu 06:18:00 AM -17.3230 -50.0681 152° Southeast  Level FlightAware Approximate
Thu 06:18:18 AM -18.2180 -49.8890 147° Southeast 507 583 35,000  Level FlightAware ADS-B
Thu 06:18:54 AM -18.2900 -49.8420 148° Southeast 506 582 35,000  Level FlightAware ADS-B
Thu 06:19:31 AM -18.3620 -49.7950 148° Southeast 507 583 35,000  Level FlightAware ADS-B
Thu 06:20:04 AM -18.4310 -49.7510 149° Southeast 508 585 35,000  Level FlightAware ADS-B
Thu 06:20:42 AM -18.5080 -49.7010 148° Southeast 509 586 35,000  Level FlightAware ADS-B
Thu 06:21:12 AM -18.5670 -49.6620 148° Southeast 509 586 35,000  Level FlightAware ADS-B
Thu 06:21:50 AM -18.6430 -49.6130 149° Southeast 509 586 35,000  Level FlightAware ADS-B
Thu 06:22:26 AM -18.7170 -49.5650 148° Southeast 509 586 35,000  Level FlightAware ADS-B
Thu 06:23:00 AM -18.7830 -49.5220 148° Southeast 509 586 35,000  Level FlightAware ADS-B
Thu 06:23:36 AM -18.8560 -49.4740 148° Southeast 511 588 35,000  Level FlightAware ADS-B
Thu 06:24:12 AM -18.9270 -49.4260 147° Southeast 512 589 35,000  Level FlightAware ADS-B
Thu 06:24:42 AM -18.9880 -49.3850 148° Southeast 512 589 35,000  Level FlightAware ADS-B
Thu 06:25:20 AM -19.0650 -49.3350 148° Southeast 512 589 35,000  Level FlightAware ADS-B
Thu 06:25:56 AM -19.1360 -49.2870 147° Southeast 513 590 35,000  Level FlightAware ADS-B
Thu 06:26:32 AM -19.2100 -49.2370 147° Southeast 514 592 35,000  Level FlightAware ADS-B
Thu 06:27:04 AM -19.2720 -49.1960 148° Southeast 512 589 35,000  Level FlightAware ADS-B
Thu 06:27:40 AM -19.3440 -49.1480 148° Southeast 511 588 35,000  Level FlightAware ADS-B
Thu 06:28:14 AM -19.4130 -49.1020 148° Southeast 510 587 35,000  Level FlightAware ADS-B
Thu 06:28:52 AM -19.4900 -49.0500 148° Southeast 510 587 35,000  Level FlightAware ADS-B
Thu 06:29:24 AM -19.5530 -49.0080 148° Southeast 510 587 35,000  Level FlightAware ADS-B
Thu 06:30:00 AM -19.6260 -48.9590 148° Southeast 512 589 35,000  Level FlightAware ADS-B
Thu 06:30:36 AM -19.6990 -48.9100 148° Southeast 512 589 35,000  Level FlightAware ADS-B
Thu 06:31:12 AM -19.7710 -48.8610 147° Southeast 512 589 35,000  Level FlightAware ADS-B
Thu 06:31:44 AM -19.8340 -48.8190 148° Southeast 512 589 35,000  Level FlightAware ADS-B
Thu 06:32:20 AM -19.9070 -48.7700 148° Southeast 514 592 35,000  Level FlightAware ADS-B
Thu 06:32:56 AM -19.9790 -48.7210 147° Southeast 514 592 35,000  Level FlightAware ADS-B
Thu 06:33:28 AM -20.0440 -48.6770 148° Southeast 514 592 35,000  Level FlightAware ADS-B
Thu 06:34:05 AM -20.1160 -48.6280 147° Southeast 514 592 35,000  Level FlightAware ADS-B
Thu 06:34:40 AM -20.1890 -48.5790 148° Southeast 514 592 35,000  Level FlightAware ADS-B
Thu 06:35:14 AM -20.2580 -48.5330 148° Southeast 514 592 35,000  Level FlightAware ADS-B
Thu 06:35:50 AM -20.3300 -48.4840 147° Southeast 514 592 35,000  Level FlightAware ADS-B
Thu 06:36:26 AM -20.4020 -48.4340 147° Southeast 515 593 35,000  Level FlightAware ADS-B
Thu 06:37:02 AM -20.4740 -48.3860 148° Southeast 514 592 35,000  Level FlightAware ADS-B
Thu 06:37:34 AM -20.5380 -48.3420 147° Southeast 513 590 35,000  Level FlightAware ADS-B
Thu 06:38:10 AM -20.6100 -48.2930 148° Southeast 511 588 35,000  Level FlightAware ADS-B
Thu 06:38:44 AM -20.6780 -48.2460 147° Southeast 511 588 35,000  Level FlightAware ADS-B
Thu 06:39:14 AM -20.7390 -48.2040 147° Southeast 510 587 35,000  Level FlightAware ADS-B
Thu 06:39:54 AM -20.8170 -48.1510 148° Southeast 509 586 35,000  Level FlightAware ADS-B
Thu 06:40:30 AM -20.8910 -48.1060 150° Southeast 506 582 35,000  Level FlightAware ADS-B
Thu 06:41:06 AM -20.9650 -48.0630 152° Southeast 506 582 35,000  Level FlightAware ADS-B
Thu 06:41:38 AM -21.0300 -48.0240 151° Southeast 508 585 35,000  Level FlightAware ADS-B
Thu 06:42:16 AM -21.1080 -47.9780 151° Southeast 508 585 35,000  Level FlightAware ADS-B
Thu 06:42:52 AM -21.1840 -47.9330 151° Southeast 507 583 35,000  Level FlightAware ADS-B
Thu 06:43:26 AM -21.2530 -47.8920 151° Southeast 507 583 35,000  Level FlightAware ADS-B
Thu 06:43:58 AM -21.3200 -47.8530 152° Southeast 507 583 35,000  Level FlightAware ADS-B
Thu 06:44:35 AM -21.3940 -47.8080 150° Southeast 507 583 35,000  Level FlightAware ADS-B
Thu 06:45:12 AM -21.4720 -47.7620 151° Southeast 507 583 35,000  Level FlightAware ADS-B
Thu 06:45:46 AM -21.5410 -47.7210 151° Southeast 507 583 35,000  Level FlightAware ADS-B
Thu 06:46:28 AM -21.6290 -47.6680 151° Southeast 509 586 35,000  Level FlightAware ADS-B
Thu 06:47:04 AM -21.7030 -47.6240 151° Southeast 512 589 35,000  Level FlightAware ADS-B
Thu 06:47:40 AM -21.7790 -47.5790 151° Southeast 514 592 35,000 -179 Level FlightAware ADS-B
Thu 06:48:11 AM -21.8410 -47.5410 150° Southeast 514 592 34,800 -1,477 Descending FlightAware ADS-B
Thu 06:48:45 AM -21.9130 -47.4980 151° Southeast 514 592 33,400 -2,583 Descending FlightAware ADS-B
Thu 06:49:23 AM -21.9930 -47.4500 151° Southeast 517 595 31,700 -2,640 Descending FlightAware ADS-B
Thu 06:50:00 AM -22.0670 -47.4060 151° Southeast 517 595 30,100 -2,647 Descending FlightAware ADS-B
Thu 06:50:31 AM -22.1350 -47.3650 151° Southeast 514 592 28,700 -2,507 Descending FlightAware ADS-B
Thu 06:51:07 AM -22.2090 -47.3200 151° Southeast 508 585 27,300 -2,333 Descending FlightAware ADS-B
Thu 06:51:43 AM -22.2810 -47.2770 151° Southeast 501 577 25,900 -2,382 Descending FlightAware ADS-B
Thu 06:52:15 AM -22.3460 -47.2370 150° Southeast 494 568 24,600 -2,348 Descending FlightAware ADS-B
Thu 06:52:52 AM -22.4160 -47.1950 151° Southeast 480 552 23,200 -2,250 Descending FlightAware ADS-B
Thu 06:53:27 AM -22.4820 -47.1550 151° Southeast 451 519 21,900 -2,250 Descending FlightAware ADS-B
Thu 06:54:04 AM -22.5500 -47.1140 151° Southeast 442 509 20,500 -2,143 Descending FlightAware ADS-B
Thu 06:54:37 AM -22.6100 -47.0840 155° Southeast 434 499 19,400 -1,913 Descending FlightAware ADS-B
Thu 06:55:13 AM -22.6770 -47.0550 158° South 424 488 18,300 -1,833 Descending FlightAware ADS-B
Thu 06:55:49 AM -22.7410 -47.0290 159° South 416 479 17,200 -1,629 Descending FlightAware ADS-B
Thu 06:56:23 AM -22.8020 -47.0030 159° South 392 451 16,400 -1,652 Descending FlightAware ADS-B
Thu 06:56:58 AM -22.8600 -46.9790 159° South 360 414 15,300 -1,521 Descending FlightAware ADS-B
Thu 06:57:34 AM -22.9140 -46.9560 159° South 322 371 14,600 -1,324 Descending FlightAware ADS-B
Thu 06:58:06 AM -22.9560 -46.9390 160° South 301 346 13,800 -1,913 Descending FlightAware ADS-B
Thu 06:58:43 AM -23.0030 -46.9190 159° South 295 339 12,400 -2,057 Descending FlightAware ADS-B
Thu 06:59:16 AM -23.0470 -46.9000 158° South 302 348 11,400 -1,652 Descending FlightAware ADS-B
Thu 06:59:52 AM -23.0930 -46.8810 159° South 302 348 10,500 -1,250 Descending FlightAware ADS-B
Thu 07:00:28 AM -23.1400 -46.8610 159° South 290 334 9,900 -857 Descending FlightAware ADS-B
Thu 07:00:48 AM -23.1640 -46.8510 159° South 288 331 9,700 -882 Descending FlightAware ADS-B
Thu 07:01:02 AM -23.1820 -46.8430 158° South 286 329 9,400 -947 Descending FlightAware ADS-B
Thu 07:01:26 AM -23.2120 -46.8310 160° South 273 314 9,100 -1,000 Descending FlightAware ADS-B
Thu 07:01:44 AM -23.2320 -46.8220 158° South 271 312 8,700 -1,050 Descending FlightAware ADS-B
Thu 07:02:06 AM -23.2580 -46.8110 159° South 263 303 8,400 -714 Descending FlightAware ADS-B
Thu 07:02:26 AM -23.2800 -46.8020 159° South 248 285 8,200 -750 Descending FlightAware ADS-B
Thu 07:02:46 AM -23.3010 -46.7930 159° South 233 268 7,900 -955 Descending FlightAware ADS-B
Thu 07:03:10 AM -23.3250 -46.7830 159° South 227 261 7,500 -955 Descending FlightAware ADS-B
Thu 07:03:30 AM -23.3430 -46.7750 158° South 224 258 7,200 -789 Descending FlightAware ADS-B
Thu 07:03:48 AM -23.3610 -46.7670 158° South 223 257 7,000 -667 Descending FlightAware ADS-B
Thu 07:04:06 AM -23.3760 -46.7580 151° Southeast 222 255 6,800 -1,263 Descending FlightAware ADS-B
Thu 07:04:26 AM -23.3930 -46.7430 141° Southeast 224 258 6,200 -1,421 Descending FlightAware ADS-B
Thu 07:04:44 AM -23.4080 -46.7300 142° Southeast 222 255 5,900 -1,000 Descending FlightAware ADS-B
Thu 07:05:02 AM -23.4210 -46.7170 137° Southeast 220 253 5,600 -947 Descending FlightAware ADS-B
Thu 07:05:22 AM -23.4360 -46.7030 139° Southeast 217 250 5,300 -900 Descending FlightAware ADS-B
Thu 07:05:42 AM -23.4500 -46.6870 134° Southeast 206 237 5,000 -439 Descending FlightAware ADS-B
Thu 07:06:03 AM -23.4580 -46.6690 116° Southeast 198 228 5,000 -409 Level FlightAware ADS-B
Thu 07:06:26 AM -23.4670 -46.6470 114° Southeast 205 236 4,700 -682 Descending FlightAware ADS-B
Thu 07:06:47 AM -23.4740 -46.6270 111° Southeast 189 217 4,500 -462 Descending FlightAware ADS-B
Thu 07:06:52 AM -23.4740 -46.6220 90° East 182 209 4,500 -222 Level FlightAware ADS-B
Thu 07:07:14 AM -23.4700 -46.6030 77° East 182 209 4,400 -500 Descending FlightAware ADS-B
Thu 07:07:28 AM -23.4670 -46.5900 76° East 181 208 4,200 -1,059 Descending FlightAware ADS-B
Thu 07:07:48 AM -23.4620 -46.5730 72° East 172 198 3,800 -1,024 Descending FlightAware ADS-B
Thu 07:08:09 AM -23.4570 -46.5560 72° East 165 190 3,500 -818 Descending FlightAware ADS-B
Thu 07:08:32 AM -23.4530 -46.5390 76° East 158 182 3,200 -732 Descending FlightAware ADS-B
Thu 07:08:50 AM -23.4490 -46.5250 73° East 157 181 3,000 -766 Descending FlightAware ADS-B
Thu 07:09:19 AM -23.4430 -46.5030 73° East 155 178 2,600 -857 Descending FlightAware ADS-B
Thu 07:09:39 AM -23.4390 -46.4870 75° East 154 177 2,300 -900 Descending FlightAware ADS-B
Thu 07:10:00 AM -23.4360 -46.4750 75° East 125 144 -6,571 Descending FlightAware ADS-B
Thu 07:10:32 AM -23.4310 -46.4600 70° East 105 121  Level FlightAware ADS-B

Login

Don't have an account? Register now (free) for customized features, flight alerts, and more!